This is the latest recevied weather packets stored in our database for station/object F4WDE-10. If no packets are shown the sender has not sent any weather packets the latest 1 day(s).
| Time | Temp. | Humidity | Pressure | Rain* | Wind** | Luminosity | Snow |
|---|---|---|---|---|---|---|---|
| 1788544382 | 28.33° C | 61% | 964 hPa | - | - | - | - |
| 1788543481 | 28.89° C | 57% | 964 hPa | - | - | - | - |
| 1788542580 | 36.67° C | 38% | 964 hPa | - | - | - | - |
| 1788541678 | 38.89° C | 36% | 964 hPa | - | - | - | - |
| 1788540777 | 40.56° C | 33% | 964 hPa | - | - | - | - |
| 1788539876 | 39.44° C | 35% | 964 hPa | - | - | - | - |
| 1788538975 | 40.56° C | 34% | 964 hPa | - | - | - | - |
| 1788538074 | 42.22° C | 29% | 964 hPa | - | - | - | - |
| 1788537173 | 43.33° C | 25% | 964 hPa | - | - | - | - |
| 1788536271 | 46.11° C | 25% | 965 hPa | - | - | - | - |
| 1788535370 | 46.67° C | 24% | 965 hPa | - | - | - | - |
| 1788534469 | 43.89° C | 28% | 965 hPa | - | - | - | - |
| 1788533568 | 45° C | 27% | 965 hPa | - | - | - | - |
| 1788532667 | 42.22° C | 30% | 965 hPa | - | - | - | - |
| 1788531766 | 42.22° C | 32% | 965 hPa | - | - | - | - |
| 1788530865 | 45° C | 27% | 965 hPa | - | - | - | - |
| 1788529964 | 44.44° C | 29% | 965 hPa | - | - | - | - |
| 1788529063 | 43.89° C | 30% | 965 hPa | - | - | - | - |
| 1788528162 | 45° C | 30% | 965 hPa | - | - | - | - |
| 1788527261 | 42.22° C | 32% | 965 hPa | - | - | - | - |
| 1788526359 | 45° C | 29% | 966 hPa | - | - | - | - |
* Rain since midnight (hover to see other rain measurements)
** Current wind speed in m/s (hover to see current wind gust speed)